sensor_id;sensor_type;location;lat;lon;timestamp;pressure;altitude;pressure_sealevel;temperature;humidity
21357;BME280;10836;53.068;18.234;2023-05-10T00:00:25;101494.22;;;7.98;56.78
21357;BME280;10836;53.068;18.234;2023-05-10T00:03:10;101494.34;;;7.91;57.52
21357;BME280;10836;53.068;18.234;2023-05-10T00:05:37;101491.59;;;7.91;57.02
21357;BME280;10836;53.068;18.234;2023-05-10T00:08:04;101495.28;;;7.85;57.67
21357;BME280;10836;53.068;18.234;2023-05-10T00:10:31;101493.63;;;7.84;57.55
21357;BME280;10836;53.068;18.234;2023-05-10T00:12:58;101489.97;;;7.90;57.01
21357;BME280;10836;53.068;18.234;2023-05-10T00:15:25;101491.97;;;7.83;57.06
21357;BME280;10836;53.068;18.234;2023-05-10T00:17:52;101490.69;;;7.74;58.03
21357;BME280;10836;53.068;18.234;2023-05-10T00:20:19;101495.53;;;7.72;58.40
21357;BME280;10836;53.068;18.234;2023-05-10T00:22:46;101488.19;;;7.61;58.88
21357;BME280;10836;53.068;18.234;2023-05-10T00:25:13;101488.66;;;7.58;58.93
21357;BME280;10836;53.068;18.234;2023-05-10T00:27:40;101479.06;;;7.55;58.66
21357;BME280;10836;53.068;18.234;2023-05-10T00:30:07;101480.59;;;7.51;59.04
21357;BME280;10836;53.068;18.234;2023-05-10T00:32:34;101470.88;;;7.44;59.87
21357;BME280;10836;53.068;18.234;2023-05-10T00:35:01;101472.31;;;7.34;59.62
21357;BME280;10836;53.068;18.234;2023-05-10T00:37:28;101479.03;;;7.32;59.98
21357;BME280;10836;53.068;18.234;2023-05-10T00:39:55;101477.84;;;7.40;59.71
21357;BME280;10836;53.068;18.234;2023-05-10T00:42:22;101472.31;;;7.34;59.88
21357;BME280;10836;53.068;18.234;2023-05-10T00:44:51;101470.06;;;7.31;60.42
21357;BME280;10836;53.068;18.234;2023-05-10T00:47:18;101468.28;;;7.25;60.31
21357;BME280;10836;53.068;18.234;2023-05-10T00:49:46;101470.41;;;7.23;60.35
21357;BME280;10836;53.068;18.234;2023-05-10T00:52:12;101457.53;;;7.30;60.18
21357;BME280;10836;53.068;18.234;2023-05-10T00:54:41;101452.44;;;7.22;60.37
21357;BME280;10836;53.068;18.234;2023-05-10T00:57:08;101463.78;;;7.19;60.76
21357;BME280;10836;53.068;18.234;2023-05-10T00:59:35;101458.34;;;7.19;60.88
21357;BME280;10836;53.068;18.234;2023-05-10T01:02:02;101460.78;;;7.09;61.71
21357;BME280;10836;53.068;18.234;2023-05-10T01:04:29;101454.38;;;7.04;62.15
21357;BME280;10836;53.068;18.234;2023-05-10T01:06:57;101456.16;;;6.98;61.96
21357;BME280;10836;53.068;18.234;2023-05-10T01:09:24;101465.34;;;6.97;62.54
21357;BME280;10836;53.068;18.234;2023-05-10T01:11:53;101458.59;;;6.88;62.54
21357;BME280;10836;53.068;18.234;2023-05-10T01:14:21;101451.38;;;6.82;63.23
21357;BME280;10836;53.068;18.234;2023-05-10T01:16:49;101446.97;;;6.69;63.57
21357;BME280;10836;53.068;18.234;2023-05-10T01:19:20;101448.09;;;6.61;64.61
21357;BME280;10836;53.068;18.234;2023-05-10T01:25:14;101456.88;;;6.45;65.64
21357;BME280;10836;53.068;18.234;2023-05-10T01:34:07;101442.38;;;6.03;69.37
21357;BME280;10836;53.068;18.234;2023-05-10T01:36:55;101435.34;;;5.95;69.79
21357;BME280;10836;53.068;18.234;2023-05-10T01:39:34;101434.63;;;5.82;70.65
21357;BME280;10836;53.068;18.234;2023-05-10T01:42:10;101428.88;;;5.72;71.22
21357;BME280;10836;53.068;18.234;2023-05-10T01:44:42;101433.91;;;5.68;71.81
21357;BME280;10836;53.068;18.234;2023-05-10T01:47:22;101431.81;;;5.70;72.63
21357;BME280;10836;53.068;18.234;2023-05-10T01:49:54;101435.59;;;5.69;72.59
21357;BME280;10836;53.068;18.234;2023-05-10T01:52:26;101433.31;;;5.66;73.04
21357;BME280;10836;53.068;18.234;2023-05-10T01:55:05;101430.75;;;5.53;74.33
21357;BME280;10836;53.068;18.234;2023-05-10T01:57:37;101428.66;;;5.55;73.68
21357;BME280;10836;53.068;18.234;2023-05-10T02:00:06;101426.16;;;5.53;74.17
21357;BME280;10836;53.068;18.234;2023-05-10T02:02:47;101425.16;;;5.48;74.76
21357;BME280;10836;53.068;18.234;2023-05-10T02:05:16;101417.88;;;5.48;75.15
21357;BME280;10836;53.068;18.234;2023-05-10T02:07:44;101425.78;;;5.50;75.34
21357;BME280;10836;53.068;18.234;2023-05-10T02:10:13;101419.97;;;5.46;75.53
21357;BME280;10836;53.068;18.234;2023-05-10T02:12:43;101410.84;;;5.41;75.96
21357;BME280;10836;53.068;18.234;2023-05-10T02:15:12;101416.31;;;5.34;76.10
21357;BME280;10836;53.068;18.234;2023-05-10T02:17:43;101406.31;;;5.34;77.32
21357;BME280;10836;53.068;18.234;2023-05-10T02:20:13;101409.03;;;5.34;77.62
21357;BME280;10836;53.068;18.234;2023-05-10T02:22:44;101403.88;;;5.26;77.98
21357;BME280;10836;53.068;18.234;2023-05-10T02:25:13;101404.31;;;5.23;77.69
21357;BME280;10836;53.068;18.234;2023-05-10T02:27:43;101399.75;;;5.24;78.25
21357;BME280;10836;53.068;18.234;2023-05-10T02:30:11;101411.25;;;5.19;78.00
21357;BME280;10836;53.068;18.234;2023-05-10T02:32:39;101407.72;;;5.19;78.75
21357;BME280;10836;53.068;18.234;2023-05-10T02:35:07;101404.41;;;5.17;79.21
21357;BME280;10836;53.068;18.234;2023-05-10T02:37:36;101402.38;;;5.12;78.94
21357;BME280;10836;53.068;18.234;2023-05-10T02:40:05;101399.13;;;4.97;80.33
21357;BME280;10836;53.068;18.234;2023-05-10T02:42:36;101401.09;;;4.83;81.63
21357;BME280;10836;53.068;18.234;2023-05-10T02:45:07;101397.16;;;4.79;82.13
21357;BME280;10836;53.068;18.234;2023-05-10T02:47:37;101405.97;;;4.75;82.88
21357;BME280;10836;53.068;18.234;2023-05-10T02:50:04;101400.38;;;4.70;83.46
21357;BME280;10836;53.068;18.234;2023-05-10T02:52:47;101406.66;;;4.63;83.09
21357;BME280;10836;53.068;18.234;2023-05-10T02:55:19;101404.81;;;4.57;84.03
21357;BME280;10836;53.068;18.234;2023-05-10T02:57:51;101416.84;;;4.61;84.11
21357;BME280;10836;53.068;18.234;2023-05-10T03:00:21;101411.88;;;4.58;83.94
21357;BME280;10836;53.068;18.234;2023-05-10T03:02:48;101412.06;;;4.63;84.17
21357;BME280;10836;53.068;18.234;2023-05-10T03:05:15;101406.22;;;4.66;84.50
21357;BME280;10836;53.068;18.234;2023-05-10T03:07:43;101406.84;;;4.68;84.76
21357;BME280;10836;53.068;18.234;2023-05-10T03:10:10;101413.47;;;4.73;84.24
21357;BME280;10836;53.068;18.234;2023-05-10T03:16:08;101412.56;;;4.79;83.69
21357;BME280;10836;53.068;18.234;2023-05-10T03:18:43;101408.78;;;4.86;83.11
21357;BME280;10836;53.068;18.234;2023-05-10T03:21:11;101408.31;;;4.96;83.02
21357;BME280;10836;53.068;18.234;2023-05-10T03:23:47;101412.00;;;5.01;82.58
21357;BME280;10836;53.068;18.234;2023-05-10T03:26:24;101415.34;;;5.04;83.13
21357;BME280;10836;53.068;18.234;2023-05-10T03:29:00;101399.09;;;5.04;82.13
21357;BME280;10836;53.068;18.234;2023-05-10T03:31:27;101407.34;;;5.15;82.34
21357;BME280;10836;53.068;18.234;2023-05-10T03:33:55;101411.28;;;5.38;81.43
21357;BME280;10836;53.068;18.234;2023-05-10T03:36:25;101406.66;;;5.45;80.21
21357;BME280;10836;53.068;18.234;2023-05-10T03:38:53;101407.25;;;5.47;79.69
21357;BME280;10836;53.068;18.234;2023-05-10T03:41:19;101411.34;;;5.56;79.32
21357;BME280;10836;53.068;18.234;2023-05-10T03:43:47;101403.84;;;5.76;77.61
21357;BME280;10836;53.068;18.234;2023-05-10T03:46:14;101406.75;;;5.75;76.80
21357;BME280;10836;53.068;18.234;2023-05-10T03:48:41;101399.75;;;5.67;78.25
21357;BME280;10836;53.068;18.234;2023-05-10T03:51:08;101398.63;;;5.75;76.86
21357;BME280;10836;53.068;18.234;2023-05-10T03:53:35;101400.06;;;5.77;77.67
21357;BME280;10836;53.068;18.234;2023-05-10T03:56:02;101395.75;;;5.94;76.58
21357;BME280;10836;53.068;18.234;2023-05-10T03:58:29;101393.34;;;6.05;75.78
21357;BME280;10836;53.068;18.234;2023-05-10T04:00:57;101393.31;;;6.23;73.81
21357;BME280;10836;53.068;18.234;2023-05-10T04:03:24;101391.13;;;6.31;73.11
21357;BME280;10836;53.068;18.234;2023-05-10T04:06:02;101397.81;;;6.29;73.52
21357;BME280;10836;53.068;18.234;2023-05-10T04:08:29;101395.56;;;6.44;72.97
21357;BME280;10836;53.068;18.234;2023-05-10T04:11:06;101403.25;;;6.59;71.91
21357;BME280;10836;53.068;18.234;2023-05-10T04:13:34;101404.69;;;6.61;72.96
21357;BME280;10836;53.068;18.234;2023-05-10T04:16:02;101398.00;;;6.76;71.02
21357;BME280;10836;53.068;18.234;2023-05-10T04:18:29;101400.88;;;6.81;70.68
21357;BME280;10836;53.068;18.234;2023-05-10T04:20:56;101402.53;;;6.93;70.30
21357;BME280;10836;53.068;18.234;2023-05-10T04:23:23;101398.44;;;7.03;70.00
21357;BME280;10836;53.068;18.234;2023-05-10T04:25:50;101392.75;;;7.04;70.66
21357;BME280;10836;53.068;18.234;2023-05-10T04:28:17;101390.44;;;7.19;70.29
21357;BME280;10836;53.068;18.234;2023-05-10T04:30:44;101393.75;;;7.33;67.58
21357;BME280;10836;53.068;18.234;2023-05-10T04:33:11;101394.59;;;7.33;67.93
21357;BME280;10836;53.068;18.234;2023-05-10T04:35:38;101394.34;;;7.47;66.65
21357;BME280;10836;53.068;18.234;2023-05-10T04:38:06;101387.97;;;7.53;67.34
21357;BME280;10836;53.068;18.234;2023-05-10T04:40:33;101393.75;;;7.68;64.59
21357;BME280;10836;53.068;18.234;2023-05-10T04:43:01;101392.22;;;7.72;64.70
21357;BME280;10836;53.068;18.234;2023-05-10T04:45:28;101382.72;;;7.86;64.71
21357;BME280;10836;53.068;18.234;2023-05-10T04:47:54;101384.38;;;7.87;65.29
21357;BME280;10836;53.068;18.234;2023-05-10T04:50:21;101389.56;;;8.00;64.60
21357;BME280;10836;53.068;18.234;2023-05-10T04:52:49;101388.13;;;8.10;64.20
21357;BME280;10836;53.068;18.234;2023-05-10T04:55:16;101390.47;;;8.18;62.57
21357;BME280;10836;53.068;18.234;2023-05-10T04:57:43;101386.88;;;8.29;62.25
21357;BME280;10836;53.068;18.234;2023-05-10T05:00:10;101381.31;;;8.36;63.20
21357;BME280;10836;53.068;18.234;2023-05-10T05:02:37;101389.44;;;8.47;60.74
21357;BME280;10836;53.068;18.234;2023-05-10T05:05:04;101380.91;;;8.55;59.87
21357;BME280;10836;53.068;18.234;2023-05-10T05:07:32;101375.72;;;8.71;59.11
21357;BME280;10836;53.068;18.234;2023-05-10T05:09:58;101375.41;;;8.84;58.77
21357;BME280;10836;53.068;18.234;2023-05-10T05:12:25;101366.13;;;8.96;58.92
21357;BME280;10836;53.068;18.234;2023-05-10T05:14:52;101367.59;;;9.04;58.86
21357;BME280;10836;53.068;18.234;2023-05-10T05:17:19;101370.47;;;9.14;57.75
21357;BME280;10836;53.068;18.234;2023-05-10T05:19:46;101371.81;;;9.28;57.03
21357;BME280;10836;53.068;18.234;2023-05-10T05:22:13;101380.63;;;9.36;55.16
21357;BME280;10836;53.068;18.234;2023-05-10T05:24:40;101377.09;;;9.52;54.97
21357;BME280;10836;53.068;18.234;2023-05-10T05:27:07;101370.69;;;9.63;57.11
21357;BME280;10836;53.068;18.234;2023-05-10T05:29:34;101376.19;;;9.85;54.98
21357;BME280;10836;53.068;18.234;2023-05-10T05:32:01;101377.97;;;9.96;54.21
21357;BME280;10836;53.068;18.234;2023-05-10T05:34:28;101385.56;;;10.16;52.34
21357;BME280;10836;53.068;18.234;2023-05-10T05:36:55;101363.38;;;10.29;52.94
21357;BME280;10836;53.068;18.234;2023-05-10T05:39:22;101371.78;;;10.49;53.24
21357;BME280;10836;53.068;18.234;2023-05-10T05:41:49;101369.13;;;10.54;51.12
21357;BME280;10836;53.068;18.234;2023-05-10T05:44:16;101367.13;;;10.72;52.48
21357;BME280;10836;53.068;18.234;2023-05-10T05:46:43;101356.94;;;10.94;49.07
21357;BME280;10836;53.068;18.234;2023-05-10T05:49:10;101366.91;;;11.10;48.86
21357;BME280;10836;53.068;18.234;2023-05-10T05:51:37;101371.97;;;11.28;47.49
21357;BME280;10836;53.068;18.234;2023-05-10T05:54:03;101362.75;;;11.40;47.23
21357;BME280;10836;53.068;18.234;2023-05-10T05:56:31;101365.69;;;11.75;45.91
21357;BME280;10836;53.068;18.234;2023-05-10T05:58:58;101366.22;;;12.24;45.75
21357;BME280;10836;53.068;18.234;2023-05-10T06:01:25;101371.78;;;12.45;44.49
21357;BME280;10836;53.068;18.234;2023-05-10T06:03:51;101375.38;;;12.55;45.07
21357;BME280;10836;53.068;18.234;2023-05-10T06:06:19;101369.38;;;12.79;44.15
21357;BME280;10836;53.068;18.234;2023-05-10T06:08:46;101370.78;;;12.86;45.09
21357;BME280;10836;53.068;18.234;2023-05-10T06:11:13;101377.56;;;12.63;43.30
21357;BME280;10836;53.068;18.234;2023-05-10T06:13:40;101368.25;;;12.64;42.84
21357;BME280;10836;53.068;18.234;2023-05-10T06:16:07;101363.31;;;12.61;42.81
21357;BME280;10836;53.068;18.234;2023-05-10T06:18:34;101371.59;;;12.87;43.00
21357;BME280;10836;53.068;18.234;2023-05-10T06:21:01;101377.06;;;13.07;41.92
21357;BME280;10836;53.068;18.234;2023-05-10T06:23:28;101365.56;;;13.51;40.68
21357;BME280;10836;53.068;18.234;2023-05-10T06:25:55;101372.09;;;13.80;39.98
21357;BME280;10836;53.068;18.234;2023-05-10T06:28:22;101372.56;;;13.97;39.11
21357;BME280;10836;53.068;18.234;2023-05-10T06:30:49;101374.56;;;14.51;38.17
21357;BME280;10836;53.068;18.234;2023-05-10T06:33:16;101368.53;;;14.44;37.89
21357;BME280;10836;53.068;18.234;2023-05-10T06:35:43;101372.56;;;15.01;38.64
21357;BME280;10836;53.068;18.234;2023-05-10T06:38:10;101372.53;;;15.93;36.81
21357;BME280;10836;53.068;18.234;2023-05-10T06:40:41;101380.84;;;16.12;35.55
21357;BME280;10836;53.068;18.234;2023-05-10T06:43:08;101374.78;;;16.52;36.18
21357;BME280;10836;53.068;18.234;2023-05-10T06:45:35;101371.38;;;15.99;35.59
21357;BME280;10836;53.068;18.234;2023-05-10T06:48:05;101356.84;;;15.93;35.06
21357;BME280;10836;53.068;18.234;2023-05-10T06:50:33;101366.19;;;15.69;36.46
21357;BME280;10836;53.068;18.234;2023-05-10T06:53:00;101375.22;;;15.74;35.96
21357;BME280;10836;53.068;18.234;2023-05-10T06:55:28;101370.59;;;15.41;37.50
21357;BME280;10836;53.068;18.234;2023-05-10T06:57:56;101368.19;;;15.63;37.52
21357;BME280;10836;53.068;18.234;2023-05-10T07:00:22;101367.81;;;16.17;36.42
21357;BME280;10836;53.068;18.234;2023-05-10T07:02:49;101366.06;;;15.55;36.11
21357;BME280;10836;53.068;18.234;2023-05-10T07:05:17;101374.75;;;15.67;35.81
21357;BME280;10836;53.068;18.234;2023-05-10T07:07:45;101360.25;;;15.85;37.36
21357;BME280;10836;53.068;18.234;2023-05-10T07:10:12;101365.91;;;16.18;37.98
21357;BME280;10836;53.068;18.234;2023-05-10T07:12:39;101366.59;;;16.47;34.79
21357;BME280;10836;53.068;18.234;2023-05-10T07:15:06;101366.94;;;16.65;35.04
21357;BME280;10836;53.068;18.234;2023-05-10T07:17:34;101360.63;;;16.21;35.05
21357;BME280;10836;53.068;18.234;2023-05-10T07:20:01;101364.66;;;16.05;35.61
21357;BME280;10836;53.068;18.234;2023-05-10T07:22:28;101367.81;;;16.41;36.37
21357;BME280;10836;53.068;18.234;2023-05-10T07:24:55;101363.75;;;16.76;33.82
21357;BME280;10836;53.068;18.234;2023-05-10T07:27:22;101361.06;;;16.71;33.72
21357;BME280;10836;53.068;18.234;2023-05-10T07:29:49;101359.16;;;16.29;34.73
21357;BME280;10836;53.068;18.234;2023-05-10T07:32:16;101367.06;;;16.54;34.82
21357;BME280;10836;53.068;18.234;2023-05-10T07:34:43;101370.88;;;16.16;33.62
21357;BME280;10836;53.068;18.234;2023-05-10T07:37:10;101365.84;;;16.23;34.25
21357;BME280;10836;53.068;18.234;2023-05-10T07:39:36;101369.09;;;15.82;33.51
21357;BME280;10836;53.068;18.234;2023-05-10T07:42:04;101370.84;;;16.58;33.53
21357;BME280;10836;53.068;18.234;2023-05-10T07:44:31;101359.19;;;16.67;33.02
21357;BME280;10836;53.068;18.234;2023-05-10T07:46:58;101353.84;;;16.51;33.45
21357;BME280;10836;53.068;18.234;2023-05-10T07:49:25;101350.69;;;16.82;33.92
21357;BME280;10836;53.068;18.234;2023-05-10T07:51:52;101363.25;;;16.08;33.94
21357;BME280;10836;53.068;18.234;2023-05-10T07:54:19;101352.97;;;16.56;32.73
21357;BME280;10836;53.068;18.234;2023-05-10T07:56:46;101355.72;;;17.12;34.21
21357;BME280;10836;53.068;18.234;2023-05-10T07:59:17;101368.47;;;17.41;32.61
21357;BME280;10836;53.068;18.234;2023-05-10T08:01:44;101384.84;;;17.51;32.32
21357;BME280;10836;53.068;18.234;2023-05-10T08:04:11;101389.88;;;17.16;32.64
21357;BME280;10836;53.068;18.234;2023-05-10T08:06:39;101362.00;;;16.99;32.20
21357;BME280;10836;53.068;18.234;2023-05-10T08:09:06;101368.00;;;16.69;32.69
21357;BME280;10836;53.068;18.234;2023-05-10T08:11:34;101364.72;;;16.67;34.00
21357;BME280;10836;53.068;18.234;2023-05-10T08:14:01;101348.16;;;17.18;32.21
21357;BME280;10836;53.068;18.234;2023-05-10T08:16:28;101354.44;;;17.05;32.50
21357;BME280;10836;53.068;18.234;2023-05-10T08:18:56;101345.03;;;17.98;31.79
21357;BME280;10836;53.068;18.234;2023-05-10T08:21:23;101372.94;;;17.37;31.80
21357;BME280;10836;53.068;18.234;2023-05-10T08:23:50;101356.91;;;17.06;31.71
21357;BME280;10836;53.068;18.234;2023-05-10T08:26:17;101354.84;;;16.98;31.20
21357;BME280;10836;53.068;18.234;2023-05-10T08:28:43;101354.69;;;17.08;31.48
21357;BME280;10836;53.068;18.234;2023-05-10T08:31:10;101361.69;;;17.33;31.85
21357;BME280;10836;53.068;18.234;2023-05-10T08:33:37;101350.91;;;17.50;31.90
21357;BME280;10836;53.068;18.234;2023-05-10T08:36:04;101328.44;;;17.84;31.51
21357;BME280;10836;53.068;18.234;2023-05-10T08:38:31;101350.97;;;18.19;30.29
21357;BME280;10836;53.068;18.234;2023-05-10T08:40:58;101353.00;;;17.72;31.56
21357;BME280;10836;53.068;18.234;2023-05-10T08:43:28;101364.44;;;17.79;30.73
21357;BME280;10836;53.068;18.234;2023-05-10T08:46:00;101352.50;;;17.38;31.02
21357;BME280;10836;53.068;18.234;2023-05-10T08:48:29;101334.59;;;18.09;30.72
21357;BME280;10836;53.068;18.234;2023-05-10T08:50:58;101346.94;;;18.25;29.68
21357;BME280;10836;53.068;18.234;2023-05-10T08:53:28;101335.13;;;18.60;30.93
21357;BME280;10836;53.068;18.234;2023-05-10T08:55:55;101354.19;;;18.21;29.98
21357;BME280;10836;53.068;18.234;2023-05-10T08:58:23;101363.84;;;17.82;30.02
21357;BME280;10836;53.068;18.234;2023-05-10T09:00:50;101346.00;;;17.61;31.19
21357;BME280;10836;53.068;18.234;2023-05-10T09:03:19;101339.41;;;18.17;31.58
21357;BME280;10836;53.068;18.234;2023-05-10T09:05:48;101351.84;;;18.78;29.34
21357;BME280;10836;53.068;18.234;2023-05-10T09:08:15;101351.66;;;18.24;29.49
21357;BME280;10836;53.068;18.234;2023-05-10T09:10:44;101345.66;;;17.68;31.20
21357;BME280;10836;53.068;18.234;2023-05-10T09:13:11;101342.41;;;18.29;31.05
21357;BME280;10836;53.068;18.234;2023-05-10T09:15:43;101342.00;;;18.85;30.49
21357;BME280;10836;53.068;18.234;2023-05-10T09:18:11;101345.22;;;19.01;29.06
21357;BME280;10836;53.068;18.234;2023-05-10T09:20:38;101341.81;;;18.82;29.26
21357;BME280;10836;53.068;18.234;2023-05-10T09:23:05;101339.81;;;19.49;28.89
21357;BME280;10836;53.068;18.234;2023-05-10T09:25:32;101345.84;;;18.98;29.00
21357;BME280;10836;53.068;18.234;2023-05-10T09:28:00;101336.63;;;19.34;29.15
21357;BME280;10836;53.068;18.234;2023-05-10T09:30:30;101365.38;;;18.79;29.27
21357;BME280;10836;53.068;18.234;2023-05-10T09:32:59;101346.41;;;18.23;30.33
21357;BME280;10836;53.068;18.234;2023-05-10T09:35:28;101342.59;;;18.46;29.26
21357;BME280;10836;53.068;18.234;2023-05-10T09:37:58;101333.22;;;18.70;29.42
21357;BME280;10836;53.068;18.234;2023-05-10T09:40:27;101341.66;;;19.09;29.81
21357;BME280;10836;53.068;18.234;2023-05-10T09:42:55;101331.59;;;19.13;29.22
21357;BME280;10836;53.068;18.234;2023-05-10T09:45:25;101356.25;;;18.79;30.65
21357;BME280;10836;53.068;18.234;2023-05-10T09:47:52;101329.41;;;19.55;29.59
21357;BME280;10836;53.068;18.234;2023-05-10T09:50:20;101325.56;;;19.65;29.40
21357;BME280;10836;53.068;18.234;2023-05-10T09:52:49;101348.72;;;18.93;28.53
21357;BME280;10836;53.068;18.234;2023-05-10T09:55:20;101357.38;;;18.78;29.59
21357;BME280;10836;53.068;18.234;2023-05-10T09:57:48;101331.72;;;18.64;29.72
21357;BME280;10836;53.068;18.234;2023-05-10T10:00:19;101337.59;;;18.48;30.32
21357;BME280;10836;53.068;18.234;2023-05-10T10:02:57;101325.53;;;19.03;29.64
21357;BME280;10836;53.068;18.234;2023-05-10T10:05:32;101321.34;;;20.24;28.96
21357;BME280;10836;53.068;18.234;2023-05-10T10:08:02;101340.25;;;20.22;28.97
21357;BME280;10836;53.068;18.234;2023-05-10T10:10:29;101326.94;;;19.84;28.26
21357;BME280;10836;53.068;18.234;2023-05-10T10:12:57;101319.63;;;19.26;28.80
21357;BME280;10836;53.068;18.234;2023-05-10T10:15:25;101307.84;;;19.74;29.82
21357;BME280;10836;53.068;18.234;2023-05-10T10:17:53;101304.56;;;20.38;29.64
21357;BME280;10836;53.068;18.234;2023-05-10T10:20:22;101299.31;;;20.19;29.05
21357;BME280;10836;53.068;18.234;2023-05-10T10:22:49;101291.94;;;19.26;29.15
21357;BME280;10836;53.068;18.234;2023-05-10T10:25:17;101316.75;;;19.32;28.26
21357;BME280;10836;53.068;18.234;2023-05-10T10:30:43;101312.56;;;19.43;31.90
21357;BME280;10836;53.068;18.234;2023-05-10T10:35:58;101306.06;;;18.72;29.95
21357;BME280;10836;53.068;18.234;2023-05-10T10:38:36;101311.47;;;18.77;30.77
21357;BME280;10836;53.068;18.234;2023-05-10T10:41:09;101305.59;;;18.56;31.25
21357;BME280;10836;53.068;18.234;2023-05-10T10:43:36;101330.06;;;18.13;30.92
21357;BME280;10836;53.068;18.234;2023-05-10T10:46:17;101309.22;;;18.79;30.69
21357;BME280;10836;53.068;18.234;2023-05-10T10:48:49;101298.47;;;19.00;30.95
21357;BME280;10836;53.068;18.234;2023-05-10T10:51:18;101321.44;;;19.00;30.55
21357;BME280;10836;53.068;18.234;2023-05-10T10:53:47;101299.25;;;18.55;30.59
21357;BME280;10836;53.068;18.234;2023-05-10T10:56:14;101299.16;;;18.60;30.58
21357;BME280;10836;53.068;18.234;2023-05-10T10:58:49;101276.66;;;18.76;30.31
21357;BME280;10836;53.068;18.234;2023-05-10T11:01:20;101312.09;;;18.74;31.52
21357;BME280;10836;53.068;18.234;2023-05-10T11:06:30;101286.66;;;19.78;28.81
21357;BME280;10836;53.068;18.234;2023-05-10T11:09:07;101289.88;;;19.32;30.11
21357;BME280;10836;53.068;18.234;2023-05-10T11:11:36;101290.06;;;19.75;31.29
21357;BME280;10836;53.068;18.234;2023-05-10T11:14:19;101280.56;;;19.59;28.66
21357;BME280;10836;53.068;18.234;2023-05-10T11:16:47;101281.22;;;20.30;30.00
21357;BME280;10836;53.068;18.234;2023-05-10T11:19:15;101298.44;;;19.92;29.85
21357;BME280;10836;53.068;18.234;2023-05-10T11:22:31;101273.66;;;19.87;29.08
21357;BME280;10836;53.068;18.234;2023-05-10T11:24:40;101284.03;;;20.56;30.36
21357;BME280;10836;53.068;18.234;2023-05-10T11:27:23;101284.13;;;20.08;29.36
21357;BME280;10836;53.068;18.234;2023-05-10T11:29:52;101264.78;;;19.68;29.18
21357;BME280;10836;53.068;18.234;2023-05-10T11:32:19;101284.38;;;19.80;29.68
21357;BME280;10836;53.068;18.234;2023-05-10T11:34:47;101283.50;;;19.32;29.07
21357;BME280;10836;53.068;18.234;2023-05-10T11:37:15;101264.72;;;19.51;30.64
21357;BME280;10836;53.068;18.234;2023-05-10T11:39:45;101267.69;;;20.29;28.70
21357;BME280;10836;53.068;18.234;2023-05-10T11:42:14;101268.81;;;20.36;27.98
21357;BME280;10836;53.068;18.234;2023-05-10T11:44:41;101286.91;;;20.16;27.76
21357;BME280;10836;53.068;18.234;2023-05-10T11:47:08;101262.78;;;19.60;28.81
21357;BME280;10836;53.068;18.234;2023-05-10T11:49:35;101288.78;;;19.81;28.77
21357;BME280;10836;53.068;18.234;2023-05-10T11:52:06;101276.63;;;20.17;27.56
21357;BME280;10836;53.068;18.234;2023-05-10T11:54:33;101272.19;;;19.99;28.28
21357;BME280;10836;53.068;18.234;2023-05-10T11:57:04;101274.69;;;19.60;28.37
21357;BME280;10836;53.068;18.234;2023-05-10T11:59:30;101259.66;;;20.18;27.57
21357;BME280;10836;53.068;18.234;2023-05-10T12:01:57;101270.25;;;19.51;27.36
21357;BME280;10836;53.068;18.234;2023-05-10T12:04:25;101258.50;;;20.11;27.06
21357;BME280;10836;53.068;18.234;2023-05-10T12:06:52;101255.72;;;19.85;28.96
21357;BME280;10836;53.068;18.234;2023-05-10T12:09:19;101273.97;;;19.15;27.84
21357;BME280;10836;53.068;18.234;2023-05-10T12:12:05;101260.09;;;19.38;27.94
21357;BME280;10836;53.068;18.234;2023-05-10T12:14:34;101265.13;;;19.75;27.91
21357;BME280;10836;53.068;18.234;2023-05-10T12:17:01;101279.03;;;18.91;29.50
21357;BME280;10836;53.068;18.234;2023-05-10T12:19:37;101274.78;;;19.47;28.51
21357;BME280;10836;53.068;18.234;2023-05-10T12:22:05;101274.78;;;19.47;27.26
21357;BME280;10836;53.068;18.234;2023-05-10T12:24:36;101267.34;;;18.94;28.77
21357;BME280;10836;53.068;18.234;2023-05-10T12:27:05;101258.81;;;19.83;28.05
21357;BME280;10836;53.068;18.234;2023-05-10T12:29:51;101269.78;;;20.23;26.91
21357;BME280;10836;53.068;18.234;2023-05-10T12:32:19;101259.66;;;19.53;27.04
21357;BME280;10836;53.068;18.234;2023-05-10T12:34:46;101261.16;;;19.59;28.15
21357;BME280;10836;53.068;18.234;2023-05-10T12:37:13;101269.97;;;19.30;26.93
21357;BME280;10836;53.068;18.234;2023-05-10T12:39:42;101269.44;;;20.16;30.29
21357;BME280;10836;53.068;18.234;2023-05-10T12:42:09;101269.81;;;20.40;26.81
21357;BME280;10836;53.068;18.234;2023-05-10T12:44:37;101284.88;;;19.82;26.78
21357;BME280;10836;53.068;18.234;2023-05-10T12:47:04;101275.50;;;19.61;28.80
21357;BME280;10836;53.068;18.234;2023-05-10T12:49:31;101249.88;;;20.21;26.97
21357;BME280;10836;53.068;18.234;2023-05-10T12:51:58;101259.69;;;20.27;25.61
21357;BME280;10836;53.068;18.234;2023-05-10T12:54:25;101261.34;;;20.45;25.72
21357;BME280;10836;53.068;18.234;2023-05-10T12:56:51;101261.34;;;20.45;27.32
21357;BME280;10836;53.068;18.234;2023-05-10T12:59:18;101262.66;;;20.56;27.59
21357;BME280;10836;53.068;18.234;2023-05-10T13:01:45;101236.19;;;20.50;28.54
21357;BME280;10836;53.068;18.234;2023-05-10T13:04:12;101252.59;;;19.95;27.74
21357;BME280;10836;53.068;18.234;2023-05-10T13:06:39;101245.19;;;20.56;28.27
21357;BME280;10836;53.068;18.234;2023-05-10T13:09:06;101248.56;;;20.10;27.34
21357;BME280;10836;53.068;18.234;2023-05-10T13:11:33;101253.00;;;20.45;28.62